Time;durP1;ratioP1;P1;durP2;ratioP2;P2;SDS_P1;SDS_P2;PMS_P1;PMS_P2;Temp;Humidity;BMP_temperature;BMP_pressure;BME280_temperature;BME280_humidity;BME280_pressure;Samples;Min_cycle;Max_cycle;Signal;HPM_P1;HPM_P2
2022/11/22 00:00:15;;;;;;;8.10;1.02;;;17.70;76.70;;;;;;5053249;28;20020;-70
2022/11/22 00:02:41;;;;;;;9.27;1.15;;;17.70;76.90;;;;;;5054215;28;20052;-70
2022/11/22 00:05:07;;;;;;;8.85;1.05;;;17.70;77.10;;;;;;5052726;28;20414;-70
2022/11/22 00:07:32;;;;;;;5.05;1.05;;;17.70;77.00;;;;;;5054061;28;20078;-70
2022/11/22 00:09:58;;;;;;;5.43;1.10;;;17.70;77.00;;;;;;5052968;28;20503;-69
2022/11/22 00:12:24;;;;;;;6.15;0.80;;;17.70;77.00;;;;;;5052602;28;20029;-69
2022/11/22 00:14:50;;;;;;;5.85;1.17;;;17.70;76.90;;;;;;5053933;28;20017;-69
2022/11/22 00:17:15;;;;;;;5.15;1.15;;;17.70;76.90;;;;;;5052864;28;20025;-69
2022/11/22 00:19:41;;;;;;;5.43;1.42;;;17.70;77.00;;;;;;5046463;28;20022;-69
2022/11/22 00:22:07;;;;;;;3.63;1.08;;;17.70;77.00;;;;;;5034056;28;20025;-69
2022/11/22 00:24:32;;;;;;;3.85;0.90;;;17.70;76.90;;;;;;5032760;28;20017;-69
2022/11/22 00:26:58;;;;;;;3.65;0.90;;;17.70;76.90;;;;;;5032720;28;20026;-69
2022/11/22 00:29:24;;;;;;;5.47;1.20;;;17.70;77.00;;;;;;5032791;28;20018;-69
2022/11/22 00:31:49;;;;;;;9.70;1.20;;;17.70;77.00;;;;;;5032314;28;20503;-69
2022/11/22 00:34:15;;;;;;;7.18;1.27;;;17.70;76.90;;;;;;5033640;28;20034;-69
2022/11/22 00:36:40;;;;;;;9.63;1.42;;;17.70;76.90;;;;;;5040714;28;20020;-69
2022/11/22 00:39:06;;;;;;;3.25;0.93;;;17.70;77.00;;;;;;5053602;28;20107;-69
2022/11/22 00:41:32;;;;;;;6.50;1.60;;;17.70;76.90;;;;;;5053512;28;20028;-69
2022/11/22 00:43:57;;;;;;;5.43;1.27;;;17.70;76.90;;;;;;5035743;28;20027;-69
2022/11/22 00:46:23;;;;;;;5.07;1.10;;;17.70;77.00;;;;;;5053456;28;20041;-69
2022/11/22 00:48:49;;;;;;;4.93;1.30;;;17.70;77.10;;;;;;5052071;28;20021;-69
2022/11/22 00:51:14;;;;;;;5.32;1.13;;;17.70;77.00;;;;;;5052585;28;20029;-69
2022/11/22 00:53:40;;;;;;;5.93;1.00;;;17.70;76.90;;;;;;5051811;28;20025;-69
2022/11/22 00:56:06;;;;;;;5.35;1.33;;;17.70;76.90;;;;;;5053528;28;20025;-69
2022/11/22 00:58:32;;;;;;;6.97;1.10;;;17.70;77.00;;;;;;5053245;28;20037;-69
2022/11/22 01:00:58;;;;;;;6.32;1.00;;;17.70;77.00;;;;;;5051959;28;20115;-69
2022/11/22 01:03:23;;;;;;;4.07;1.00;;;17.70;77.00;;;;;;5053109;28;20092;-69
2022/11/22 01:05:50;;;;;;;5.10;0.90;;;17.70;77.00;;;;;;5053292;28;20056;-69
2022/11/22 01:08:16;;;;;;;6.80;0.80;;;17.70;77.20;;;;;;5053021;28;20415;-69
2022/11/22 01:10:42;;;;;;;6.95;1.10;;;17.70;77.10;;;;;;5051821;28;20509;-69
2022/11/22 01:13:08;;;;;;;5.28;1.00;;;17.70;77.20;;;;;;5053213;28;20025;-69
2022/11/22 01:15:34;;;;;;;6.25;1.15;;;17.70;77.20;;;;;;5035242;28;20031;-69
2022/11/22 01:18:00;;;;;;;8.25;1.02;;;17.70;77.10;;;;;;5052620;28;20021;-69
2022/11/22 01:20:25;;;;;;;7.03;1.05;;;17.70;77.20;;;;;;5039507;28;20116;-69
2022/11/22 01:22:51;;;;;;;7.38;1.20;;;17.70;77.20;;;;;;5032815;28;20357;-69
2022/11/22 01:25:17;;;;;;;5.63;1.25;;;17.70;77.10;;;;;;5032624;28;20025;-69
2022/11/22 01:27:42;;;;;;;5.43;1.17;;;17.70;77.10;;;;;;5031725;28;20365;-69
2022/11/22 01:30:08;;;;;;;3.20;1.00;;;17.70;77.10;;;;;;5031525;28;20029;-69
2022/11/22 01:32:34;;;;;;;5.43;1.10;;;17.70;77.10;;;;;;5031604;28;20029;-69
2022/11/22 01:34:59;;;;;;;7.55;1.20;;;17.70;77.00;;;;;;5032718;28;20033;-69
2022/11/22 01:37:25;;;;;;;3.05;1.00;;;17.70;77.00;;;;;;5046170;28;20033;-69
2022/11/22 01:39:51;;;;;;;6.18;0.90;;;17.70;77.10;;;;;;5052736;28;20033;-69
2022/11/22 01:42:16;;;;;;;7.25;1.35;;;17.70;77.10;;;;;;5052708;28;20019;-69
2022/11/22 01:44:42;;;;;;;3.85;1.05;;;17.70;77.20;;;;;;5051362;28;20025;-69
2022/11/22 01:47:12;;;;;;;4.82;0.90;;;17.70;77.20;;;;;;5035045;28;20032;-69
2022/11/22 01:50:04;;;;;;;5.78;1.45;;;17.70;77.20;;;;;;5052690;28;20025;-69
2022/11/22 01:52:30;;;;;;;6.45;0.98;;;17.70;77.00;;;;;;5050351;28;20044;-69
2022/11/22 01:54:58;;;;;;;6.25;1.23;;;17.70;77.10;;;;;;5051192;28;20029;-69
2022/11/22 01:57:27;;;;;;;8.77;1.13;;;17.70;77.20;;;;;;5051318;28;20025;-69
2022/11/22 01:59:55;;;;;;;8.80;1.50;;;17.70;77.20;;;;;;5051212;28;20040;-69
2022/11/22 02:02:21;;;;;;;7.90;1.75;;;17.70;77.20;;;;;;5051231;28;20030;-69
2022/11/22 02:04:46;;;;;;;5.68;1.10;;;17.70;77.20;;;;;;5051046;28;20021;-69
2022/11/22 02:07:14;;;;;;;6.55;1.10;;;17.70;76.90;;;;;;5034696;28;20025;-69
2022/11/22 02:09:40;;;;;;;7.00;1.38;;;17.60;76.80;;;;;;5052524;28;20376;-69
2022/11/22 02:12:06;;;;;;;8.05;1.60;;;17.60;76.70;;;;;;5034646;28;20040;-69
2022/11/22 02:14:31;;;;;;;7.57;1.95;;;17.60;76.70;;;;;;5034570;28;20040;-69
2022/11/22 02:16:57;;;;;;;7.25;1.35;;;17.60;77.80;;;;;;5051019;28;20033;-69
2022/11/22 02:19:41;;;;;;;5.20;1.20;;;17.60;76.90;;;;;;5047759;28;20025;-69
2022/11/22 02:22:35;;;;;;;7.90;1.67;;;17.60;76.90;;;;;;5031194;28;20499;-69
2022/11/22 02:25:39;;;;;;;5.00;1.20;;;17.60;76.90;;;;;;5031784;28;20037;-69
2022/11/22 02:28:06;;;;;;;6.57;1.27;;;17.60;76.90;;;;;;5032166;28;20061;-69
2022/11/22 02:30:31;;;;;;;4.85;1.10;;;17.60;76.60;;;;;;5031153;28;20022;-69
2022/11/22 02:32:57;;;;;;;10.20;1.65;;;17.60;76.60;;;;;;5032439;28;20095;-69
2022/11/22 02:35:25;;;;;;;8.65;1.55;;;17.60;76.60;;;;;;5033865;28;20514;-69
2022/11/22 02:38:12;;;;;;;11.10;1.77;;;17.60;76.70;;;;;;5051356;28;20025;-69
2022/11/22 02:40:42;;;;;;;9.45;1.55;;;17.60;76.70;;;;;;5054419;28;20025;-69
2022/11/22 02:43:14;;;;;;;6.40;1.65;;;17.60;76.60;;;;;;5038471;28;20025;-69
2022/11/22 02:45:39;;;;;;;9.23;1.60;;;17.60;76.60;;;;;;5047578;28;20017;-69
2022/11/22 02:48:09;;;;;;;9.50;1.52;;;17.60;76.60;;;;;;5044328;28;20075;-69
2022/11/22 02:50:35;;;;;;;11.18;1.73;;;17.60;76.70;;;;;;5034712;28;20026;-69
2022/11/22 02:53:00;;;;;;;7.35;1.67;;;17.60;76.80;;;;;;5017742;28;20022;-69
2022/11/22 02:55:26;;;;;;;9.68;1.40;;;17.60;76.80;;;;;;5034383;28;20037;-69
2022/11/22 02:57:52;;;;;;;9.23;1.73;;;17.60;76.90;;;;;;5035486;28;20042;-69
2022/11/22 03:00:18;;;;;;;9.65;1.92;;;17.60;76.70;;;;;;5035310;28;20044;-69
2022/11/22 03:02:43;;;;;;;6.70;1.48;;;17.60;76.80;;;;;;5035418;28;20029;-69
2022/11/22 03:05:09;;;;;;;10.25;1.83;;;17.60;76.70;;;;;;5035385;28;20032;-69
2022/11/22 03:07:34;;;;;;;7.65;1.40;;;17.60;76.80;;;;;;5035449;28;20026;-69
2022/11/22 03:10:00;;;;;;;6.63;1.50;;;17.60;76.60;;;;;;5035357;28;20017;-69
2022/11/22 03:12:25;;;;;;;7.18;1.48;;;17.60;76.60;;;;;;5035390;28;20477;-69
2022/11/22 03:14:51;;;;;;;8.25;1.63;;;17.60;76.50;;;;;;5034906;28;20100;-69
2022/11/22 03:17:17;;;;;;;7.57;1.45;;;17.50;76.50;;;;;;5034294;28;20152;-69
2022/11/22 03:19:42;;;;;;;7.95;1.80;;;17.60;76.60;;;;;;5034977;28;20022;-69
2022/11/22 03:22:08;;;;;;;9.68;1.85;;;17.60;76.30;;;;;;5035010;28;20499;-69
2022/11/22 03:24:34;;;;;;;10.85;1.80;;;17.60;76.20;;;;;;5033794;28;20033;-69
2022/11/22 03:26:59;;;;;;;6.22;1.75;;;17.60;76.30;;;;;;5035120;28;20033;-69
2022/11/22 03:29:25;;;;;;;10.30;1.95;;;17.50;76.20;;;;;;5034929;28;20119;-69
2022/11/22 03:31:50;;;;;;;8.38;1.83;;;17.50;76.50;;;;;;5034956;28;20087;-69
2022/11/22 03:34:16;;;;;;;8.93;1.70;;;17.50;76.50;;;;;;5033813;28;20427;-69
2022/11/22 03:36:42;;;;;;;7.90;1.70;;;17.50;76.40;;;;;;5042073;28;20464;-69
2022/11/22 03:39:08;;;;;;;7.00;1.85;;;17.60;75.90;;;;;;5053553;28;20442;-69
2022/11/22 03:41:33;;;;;;;10.05;2.50;;;17.50;76.00;;;;;;5053610;28;20108;-69
2022/11/22 03:43:59;;;;;;;8.30;1.40;;;17.50;76.10;;;;;;5053097;28;20021;-69
2022/11/22 03:46:24;;;;;;;8.25;1.58;;;17.50;76.20;;;;;;5052646;28;20025;-69
2022/11/22 03:48:50;;;;;;;15.98;1.92;;;17.50;76.40;;;;;;5054570;28;20021;-69
2022/11/22 03:51:16;;;;;;;8.35;1.58;;;17.50;76.40;;;;;;5054552;28;20037;-69
2022/11/22 03:53:41;;;;;;;8.90;1.38;;;17.50;76.40;;;;;;5054528;28;20068;-69
2022/11/22 03:56:07;;;;;;;8.43;2.08;;;17.50;76.30;;;;;;5052982;28;20079;-69
2022/11/22 03:58:33;;;;;;;7.72;1.80;;;17.50;76.40;;;;;;5054296;28;20045;-69
2022/11/22 04:00:58;;;;;;;10.50;2.05;;;17.50;76.40;;;;;;5054159;28;20533;-69
2022/11/22 04:03:24;;;;;;;10.10;1.92;;;17.50;76.40;;;;;;5053234;28;20161;-69
2022/11/22 04:05:50;;;;;;;4.15;1.15;;;17.50;76.40;;;;;;5053113;28;20032;-69
2022/11/22 04:08:15;;;;;;;8.73;1.88;;;17.50;76.40;;;;;;5052989;28;20044;-69
2022/11/22 04:10:41;;;;;;;6.80;1.55;;;17.50;76.40;;;;;;5054296;28;20025;-69
2022/11/22 04:13:06;;;;;;;9.43;2.20;;;17.50;76.50;;;;;;5052587;28;20025;-69
2022/11/22 04:15:32;;;;;;;6.80;1.92;;;17.50;76.50;;;;;;5054071;28;20371;-69
2022/11/22 04:17:58;;;;;;;10.82;1.67;;;17.50;76.30;;;;;;5054048;28;20061;-69
2022/11/22 04:23:14;;;;;;;14.82;2.72;;;17.50;76.30;;;;;;5033265;28;20025;-69
2022/11/22 04:25:41;;;;;;;13.15;2.13;;;17.50;76.40;;;;;;5032598;28;20018;-69
2022/11/22 04:28:07;;;;;;;7.35;1.33;;;17.50;76.50;;;;;;5016479;28;20018;-69
2022/11/22 04:33:17;;;;;;;7.88;1.95;;;17.50;76.30;;;;;;5033150;28;20151;-69
2022/11/22 04:35:43;;;;;;;7.38;1.75;;;17.50;76.50;;;;;;5032545;28;20501;-69
2022/11/22 04:38:09;;;;;;;10.85;2.20;;;17.50;76.20;;;;;;5051493;28;20578;-69
2022/11/22 04:40:35;;;;;;;9.43;1.77;;;17.50;76.10;;;;;;5035738;28;20033;-69
2022/11/22 04:45:45;;;;;;;11.55;2.00;;;17.50;76.30;;;;;;5052581;28;20075;-69
2022/11/22 04:48:14;;;;;;;13.07;2.00;;;17.50;76.30;;;;;;5052167;28;20413;-69
2022/11/22 04:53:24;;;;;;;8.85;1.67;;;17.50;76.40;;;;;;5053409;28;20429;-69
2022/11/22 04:55:50;;;;;;;9.85;1.58;;;17.50;76.20;;;;;;5051746;28;20119;-69
2022/11/22 04:58:16;;;;;;;5.95;1.45;;;17.50;76.30;;;;;;5053060;28;20077;-69
2022/11/22 05:00:42;;;;;;;10.20;1.75;;;17.60;76.40;;;;;;5052054;28;20109;-69
2022/11/22 05:03:07;;;;;;;11.10;1.83;;;17.50;76.40;;;;;;5052157;28;20052;-69
2022/11/22 05:05:37;;;;;;;8.48;2.08;;;17.60;76.20;;;;;;5052014;28;20028;-69
2022/11/22 05:08:03;;;;;;;9.05;2.00;;;17.60;76.10;;;;;;5035413;28;20017;-69
2022/11/22 05:10:55;;;;;;;12.85;1.88;;;17.50;76.10;;;;;;5051876;28;20544;-69
2022/11/22 05:13:14;;;;;;;11.05;1.65;;;17.60;76.20;;;;;;5053127;28;20098;-69
2022/11/22 05:15:40;;;;;;;6.97;1.95;;;17.60;76.20;;;;;;5052974;28;20375;-69
2022/11/22 05:18:05;;;;;;;8.80;1.95;;;17.60;76.30;;;;;;5052870;28;20025;-68
2022/11/22 05:20:31;;;;;;;9.18;1.95;;;17.60;76.30;;;;;;5038724;28;20030;-69
2022/11/22 05:25:41;;;;;;;9.98;2.35;;;17.60;76.30;;;;;;5031695;28;20071;-69
2022/11/22 05:28:06;;;;;;;12.10;1.40;;;17.60;76.30;;;;;;5032852;28;20022;-69
2022/11/22 05:30:32;;;;;;;7.70;1.75;;;17.60;76.20;;;;;;5031988;28;20153;-69
2022/11/22 05:32:57;;;;;;;8.75;2.20;;;17.60;76.20;;;;;;5033096;28;20030;-69
2022/11/22 05:35:23;;;;;;;10.43;1.90;;;17.60;76.30;;;;;;5032972;28;20423;-69
2022/11/22 05:37:49;;;;;;;8.63;1.77;;;17.60;76.40;;;;;;5048057;28;20025;-69
2022/11/22 05:40:14;;;;;;;11.15;2.10;;;17.60;76.40;;;;;;5052560;28;20530;-69
2022/11/22 05:42:40;;;;;;;12.27;1.92;;;17.60;76.40;;;;;;5052601;28;20080;-69
2022/11/22 05:45:06;;;;;;;8.07;1.60;;;17.50;76.50;;;;;;5052731;28;20060;-69
2022/11/22 05:47:35;;;;;;;8.73;1.77;;;17.50;76.50;;;;;;5052689;28;20029;-69
2022/11/22 05:50:01;;;;;;;8.38;1.95;;;17.60;77.60;;;;;;5034919;28;20028;-69
2022/11/22 05:52:27;;;;;;;8.90;1.73;;;17.60;76.70;;;;;;5052852;28;20438;-69
2022/11/22 05:54:52;;;;;;;9.95;1.73;;;17.60;76.40;;;;;;5052227;28;20104;-69
2022/11/22 05:57:18;;;;;;;10.13;1.80;;;17.60;76.50;;;;;;5052610;28;20029;-69
2022/11/22 05:59:44;;;;;;;11.10;2.30;;;17.60;76.60;;;;;;5051138;28;20447;-69
2022/11/22 06:02:10;;;;;;;8.55;1.60;;;17.60;76.50;;;;;;5051011;28;20103;-69
2022/11/22 06:04:35;;;;;;;9.88;1.80;;;17.50;76.50;;;;;;5051495;28;20021;-69
2022/11/22 06:07:01;;;;;;;9.43;1.73;;;17.50;76.60;;;;;;5052266;28;20430;-69
2022/11/22 06:09:26;;;;;;;7.47;1.75;;;17.50;76.70;;;;;;5052352;28;20025;-69
2022/11/22 06:11:52;;;;;;;7.78;2.15;;;17.60;76.70;;;;;;5055318;28;20029;-69
2022/11/22 06:14:18;;;;;;;6.75;1.63;;;17.50;76.70;;;;;;5055288;28;20021;-69
2022/11/22 06:16:43;;;;;;;4.13;1.60;;;17.50;76.60;;;;;;5056118;28;20029;-69
2022/11/22 06:19:09;;;;;;;10.63;1.77;;;17.50;76.70;;;;;;5052416;28;20070;-69
2022/11/22 06:21:35;;;;;;;6.28;1.70;;;17.50;76.50;;;;;;5034759;28;20029;-69
2022/11/22 06:24:00;;;;;;;4.72;1.52;;;17.50;76.50;;;;;;5036353;28;20030;-69
2022/11/22 06:26:26;;;;;;;6.18;1.27;;;17.50;76.50;;;;;;5036155;28;20025;-69
2022/11/22 06:28:52;;;;;;;4.57;1.48;;;17.50;76.40;;;;;;5036355;28;20028;-69
2022/11/22 06:31:19;;;;;;;7.95;1.77;;;17.50;76.60;;;;;;5035056;28;20029;-69
2022/11/22 06:33:45;;;;;;;6.70;1.60;;;17.50;76.70;;;;;;5035011;28;20053;-69
2022/11/22 06:36:16;;;;;;;8.20;1.90;;;17.50;76.80;;;;;;5038505;28;20052;-69
2022/11/22 06:38:41;;;;;;;6.82;1.70;;;17.50;76.60;;;;;;5038824;28;20499;-69
2022/11/22 06:41:09;;;;;;;9.25;1.77;;;17.50;76.70;;;;;;5038102;28;20057;-69
2022/11/22 06:43:35;;;;;;;10.38;1.67;;;17.50;76.70;;;;;;5045216;28;20139;-69
2022/11/22 06:46:01;;;;;;;7.97;1.98;;;17.50;76.60;;;;;;5028142;28;20126;-69
2022/11/22 06:48:31;;;;;;;7.72;1.65;;;17.50;76.50;;;;;;5046265;28;20028;-69
2022/11/22 06:51:04;;;;;;;6.50;1.63;;;17.50;76.40;;;;;;5034348;28;20373;-69
2022/11/22 06:53:30;;;;;;;12.30;1.55;;;17.50;76.40;;;;;;5034468;28;20551;-69
2022/11/22 06:56:22;;;;;;;7.78;1.60;;;17.50;76.40;;;;;;5018188;28;20048;-69
2022/11/22 06:58:48;;;;;;;8.77;1.73;;;17.50;76.40;;;;;;5034305;28;20407;-69
2022/11/22 07:01:16;;;;;;;4.50;1.42;;;17.50;76.50;;;;;;5018043;28;20030;-69
2022/11/22 07:03:42;;;;;;;8.45;1.88;;;17.50;76.50;;;;;;5034380;28;20028;-69
2022/11/22 07:06:08;;;;;;;6.60;1.83;;;17.50;76.20;;;;;;5034083;28;20029;-69
2022/11/22 07:08:34;;;;;;;7.35;1.60;;;17.50;76.20;;;;;;5035160;28;20110;-69
2022/11/22 07:11:10;;;;;;;6.47;1.40;;;17.50;76.40;;;;;;5034167;28;20454;-69
2022/11/22 07:13:36;;;;;;;7.75;1.70;;;17.50;76.40;;;;;;5033870;28;20021;-69
2022/11/22 07:16:03;;;;;;;9.80;1.50;;;17.50;76.50;;;;;;5017630;28;20079;-69
2022/11/22 07:18:29;;;;;;;10.95;1.70;;;17.50;76.50;;;;;;5019412;28;20021;-69
2022/11/22 07:21:02;;;;;;;8.95;1.90;;;17.50;76.50;;;;;;5037774;28;20029;-69
2022/11/22 07:23:28;;;;;;;3.63;1.23;;;17.50;76.50;;;;;;5038195;28;20017;-69
2022/11/22 07:25:53;;;;;;;8.93;1.90;;;17.50;76.50;;;;;;5033566;28;20025;-69
2022/11/22 07:28:19;;;;;;;3.83;1.23;;;17.50;76.60;;;;;;5034344;28;20028;-69
2022/11/22 07:30:45;;;;;;;7.35;1.83;;;17.50;76.60;;;;;;5034465;28;20438;-69
2022/11/22 07:33:10;;;;;;;6.75;1.52;;;17.50;76.60;;;;;;5034245;28;20029;-69
2022/11/22 07:35:36;;;;;;;9.88;1.80;;;17.50;76.60;;;;;;5033056;28;20048;-69
2022/11/22 07:38:02;;;;;;;7.47;1.60;;;17.50;76.70;;;;;;5051397;28;20025;-69
2022/11/22 07:40:27;;;;;;;4.72;1.20;;;17.50;76.70;;;;;;5054292;28;20082;-69
2022/11/22 07:42:53;;;;;;;5.32;1.50;;;17.50;76.40;;;;;;5036116;28;20384;-69
2022/11/22 07:45:19;;;;;;;7.22;1.58;;;17.50;76.30;;;;;;5054049;28;20071;-69
2022/11/22 07:47:44;;;;;;;7.70;1.65;;;17.50;76.50;;;;;;5052868;28;20029;-69
2022/11/22 07:50:10;;;;;;;5.55;1.73;;;17.50;76.60;;;;;;5054053;28;20029;-69
2022/11/22 07:52:36;;;;;;;4.97;1.77;;;17.50;76.60;;;;;;5052903;28;20040;-69
2022/11/22 07:55:01;;;;;;;6.85;2.17;;;17.50;76.50;;;;;;5053948;28;20025;-69
2022/11/22 07:57:27;;;;;;;14.10;1.65;;;17.50;76.50;;;;;;5052567;28;20553;-69
2022/11/22 07:59:53;;;;;;;4.80;1.38;;;17.50;76.70;;;;;;5053732;28;20056;-69
2022/11/22 08:02:18;;;;;;;4.07;1.27;;;17.50;76.70;;;;;;5052496;28;20530;-69
2022/11/22 08:04:44;;;;;;;5.38;1.40;;;17.50;76.60;;;;;;5053464;28;20100;-69
2022/11/22 08:07:09;;;;;;;5.85;1.25;;;17.50;76.70;;;;;;5052580;28;20024;-69
2022/11/22 08:09:35;;;;;;;8.73;1.90;;;17.50;76.70;;;;;;5053442;28;20021;-69
2022/11/22 08:12:01;;;;;;;10.63;2.20;;;17.50;76.70;;;;;;5053743;28;20075;-69
2022/11/22 08:14:27;;;;;;;5.18;1.45;;;17.50;76.70;;;;;;5053395;28;20108;-69
2022/11/22 08:16:53;;;;;;;7.93;1.60;;;17.50;76.40;;;;;;5052405;28;20044;-69
2022/11/22 08:19:19;;;;;;;10.05;2.08;;;17.50;76.60;;;;;;5049109;28;20026;-69
2022/11/22 08:21:45;;;;;;;7.47;1.67;;;17.50;76.70;;;;;;5032252;28;20033;-69
2022/11/22 08:24:11;;;;;;;7.13;1.60;;;17.50;76.70;;;;;;5032247;28;20018;-69
2022/11/22 08:26:36;;;;;;;8.80;1.52;;;17.50;76.80;;;;;;5032271;28;20028;-69
2022/11/22 08:29:10;;;;;;;6.32;1.77;;;17.50;76.70;;;;;;5033234;28;20099;-69
2022/11/22 08:31:36;;;;;;;5.70;1.35;;;17.60;76.80;;;;;;5031966;28;20031;-69
2022/11/22 08:34:02;;;;;;;3.72;1.17;;;17.50;76.80;;;;;;5031655;28;20104;-69
2022/11/22 08:36:28;;;;;;;7.70;1.75;;;17.50;76.80;;;;;;5037123;28;20021;-69
2022/11/22 08:38:53;;;;;;;7.57;1.67;;;17.60;76.90;;;;;;5035222;28;20028;-69
2022/11/22 08:41:19;;;;;;;8.02;1.70;;;17.50;76.80;;;;;;5051838;28;20037;-69
2022/11/22 08:43:45;;;;;;;5.93;1.40;;;17.60;76.90;;;;;;5051723;28;20399;-69
2022/11/22 08:46:10;;;;;;;6.90;1.52;;;17.50;76.90;;;;;;5052867;28;20017;-69
2022/11/22 08:48:36;;;;;;;7.78;1.45;;;17.50;77.00;;;;;;5051503;28;20036;-69
2022/11/22 08:51:07;;;;;;;3.85;1.30;;;17.60;77.00;;;;;;5051654;28;20503;-69
2022/11/22 08:53:33;;;;;;;5.60;1.17;;;17.50;77.00;;;;;;5052581;28;20487;-69
2022/11/22 08:56:00;;;;;;;6.05;1.42;;;17.50;77.00;;;;;;5035287;28;20024;-69
2022/11/22 08:58:25;;;;;;;7.88;1.58;;;17.60;77.00;;;;;;5051302;28;20400;-69
2022/11/22 09:00:51;;;;;;;5.53;1.38;;;17.60;77.10;;;;;;5051399;28;20032;-69
2022/11/22 09:03:17;;;;;;;7.60;1.42;;;17.60;77.10;;;;;;5051354;28;20480;-69
2022/11/22 09:05:43;;;;;;;8.82;1.60;;;17.50;77.00;;;;;;5052494;28;20032;-69
2022/11/22 09:08:08;;;;;;;5.43;1.38;;;17.50;77.00;;;;;;5051413;28;20103;-69
2022/11/22 09:10:34;;;;;;;6.55;1.58;;;17.60;77.10;;;;;;5051319;28;20108;-69
2022/11/22 09:13:00;;;;;;;7.72;1.52;;;17.50;77.00;;;;;;5051234;28;20056;-69
2022/11/22 09:15:25;;;;;;;5.07;1.75;;;17.50;77.00;;;;;;5052405;28;20025;-70
2022/11/22 09:17:51;;;;;;;4.15;1.35;;;17.60;77.00;;;;;;5052194;28;20083;-70
2022/11/22 09:20:17;;;;;;;6.20;1.20;;;17.50;76.90;;;;;;5039148;28;20041;-70
2022/11/22 09:22:42;;;;;;;4.85;1.33;;;17.50;77.00;;;;;;5031554;28;20022;-70
2022/11/22 09:25:08;;;;;;;8.10;1.92;;;17.60;77.10;;;;;;5031255;28;20108;-70
2022/11/22 09:27:34;;;;;;;6.10;1.83;;;17.60;77.10;;;;;;5031150;28;20032;-70
2022/11/22 09:30:00;;;;;;;5.05;1.30;;;17.50;77.10;;;;;;5031256;28;20442;-70
2022/11/22 09:32:25;;;;;;;4.97;1.20;;;17.60;77.20;;;;;;5030943;28;20021;-70
2022/11/22 09:34:51;;;;;;;6.85;1.40;;;17.60;77.10;;;;;;5031106;28;20033;-70
2022/11/22 09:37:18;;;;;;;6.97;1.45;;;17.50;77.10;;;;;;5043103;28;20021;-69
2022/11/22 09:39:47;;;;;;;6.90;1.30;;;17.60;76.90;;;;;;5050943;28;20025;-69
2022/11/22 09:42:40;;;;;;;4.47;1.25;;;17.50;77.00;;;;;;5050921;28;20116;-69
2022/11/22 09:45:32;;;;;;;3.80;1.15;;;17.60;77.00;;;;;;5052898;28;20024;-69
2022/11/22 09:48:22;;;;;;;6.85;1.50;;;17.50;77.00;;;;;;5039489;28;20021;-69
2022/11/22 09:50:55;;;;;;;7.30;1.30;;;17.60;77.20;;;;;;5048561;28;20021;-69
2022/11/22 09:53:25;;;;;;;;;;;17.50;77.10;;;;;;5031745;28;20091;-69
2022/11/22 09:55:57;;;;;;;6.32;1.30;;;17.60;77.20;;;;;;5035044;28;19956;-69
2022/11/22 09:58:46;;;;;;;8.55;1.60;;;17.50;77.10;;;;;;5018501;28;20053;-69
2022/11/22 10:01:17;;;;;;;3.15;1.08;;;17.60;77.20;;;;;;5020060;28;20495;-69
2022/11/22 10:03:57;;;;;;;7.85;1.65;;;17.50;76.80;;;;;;5035909;28;20112;-69
2022/11/22 10:06:25;;;;;;;15.75;2.63;;;17.50;76.90;;;;;;5034923;28;20569;-69
2022/11/22 10:08:55;;;;;;;22.80;2.60;;;17.40;73.20;;;;;;5034679;28;20025;-69
2022/11/22 10:11:20;;;;;;;24.55;3.30;;;17.10;69.30;;;;;;5034813;28;20025;-69
2022/11/22 10:13:58;;;;;;;16.02;2.55;;;16.70;68.00;;;;;;5040165;28;20025;-70
2022/11/22 10:16:31;;;;;;;14.13;2.80;;;16.50;67.00;;;;;;5054536;28;20063;-69
2022/11/22 10:19:17;;;;;;;16.35;2.92;;;16.30;66.70;;;;;;5053555;28;20029;-70
2022/11/22 10:21:45;;;;;;;21.27;2.42;;;16.20;66.20;;;;;;5034068;28;20124;-69
2022/11/22 10:24:15;;;;;;;15.07;2.75;;;16.10;66.20;;;;;;5034360;28;20021;-69
2022/11/22 10:26:41;;;;;;;14.43;2.53;;;16.00;66.20;;;;;;5034382;28;20064;-69
2022/11/22 10:29:25;;;;;;;19.23;2.67;;;15.90;66.70;;;;;;5035358;28;20052;-70
2022/11/22 10:32:02;;;;;;;21.63;3.70;;;15.90;66.70;;;;;;5045418;28;20059;-71
2022/11/22 10:34:32;;;;;;;17.17;3.42;;;15.80;66.20;;;;;;5034354;28;20037;-71
2022/11/22 10:37:13;;;;;;;21.98;3.38;;;15.70;66.50;;;;;;5044515;28;20025;-71
2022/11/22 10:39:45;;;;;;;17.15;2.67;;;15.60;67.30;;;;;;5053961;28;20035;-69
2022/11/22 10:42:23;;;;;;;23.98;2.88;;;15.60;67.00;;;;;;5053987;28;20025;-69
2022/11/22 10:45:04;;;;;;;21.25;3.83;;;15.60;66.70;;;;;;5054764;28;20059;-68
2022/11/22 10:47:48;;;;;;;19.48;3.15;;;15.50;66.80;;;;;;5055081;28;20037;-69
2022/11/22 10:50:26;;;;;;;21.92;3.20;;;15.50;66.80;;;;;;5053904;28;20032;-68
2022/11/22 10:53:13;;;;;;;25.15;3.50;;;15.40;67.10;;;;;;5054916;28;20095;-70
2022/11/22 10:55:54;;;;;;;23.23;3.85;;;15.40;66.60;;;;;;5053663;28;20032;-71
2022/11/22 10:58:38;;;;;;;16.33;2.88;;;15.30;66.30;;;;;;5053223;28;20103;-72
2022/11/22 11:01:28;;;;;;;18.73;3.08;;;15.30;66.50;;;;;;5054751;28;20391;-71
2022/11/22 11:03:59;;;;;;;12.07;2.38;;;15.20;66.40;;;;;;5054928;28;20028;-71
2022/11/22 11:06:37;;;;;;;12.05;2.83;;;15.20;66.40;;;;;;5037364;28;20025;-71
2022/11/22 11:09:02;;;;;;;19.90;3.15;;;15.10;66.30;;;;;;5037216;28;20520;-71
2022/11/22 11:11:28;;;;;;;16.98;2.70;;;15.10;66.50;;;;;;5054681;28;20163;-70
2022/11/22 11:14:05;;;;;;;17.05;2.60;;;15.00;66.40;;;;;;5036632;28;20027;-71
2022/11/22 11:16:32;;;;;;;12.27;2.72;;;15.00;66.30;;;;;;5037552;28;20025;-71
2022/11/22 11:19:15;;;;;;;21.58;2.95;;;15.00;66.30;;;;;;5035573;28;20102;-71
2022/11/22 11:21:40;;;;;;;18.20;3.03;;;14.90;65.80;;;;;;5033258;28;20026;-71
2022/11/22 11:24:15;;;;;;;19.98;3.10;;;14.90;66.20;;;;;;5034603;28;20049;-71
2022/11/22 11:26:42;;;;;;;15.43;2.28;;;14.80;66.00;;;;;;5032847;28;20075;-71
2022/11/22 11:29:17;;;;;;;23.27;3.45;;;14.80;66.20;;;;;;5033321;28;20132;-70
2022/11/22 11:31:46;;;;;;;27.95;3.55;;;14.70;66.00;;;;;;5034155;28;20033;-71
2022/11/22 11:34:15;;;;;;;20.23;3.47;;;14.70;66.30;;;;;;5033245;28;20028;-71
2022/11/22 11:36:40;;;;;;;16.52;2.60;;;14.60;66.50;;;;;;5039775;28;20376;-69
2022/11/22 11:39:21;;;;;;;16.40;2.75;;;14.60;66.60;;;;;;5052823;28;20071;-71
2022/11/22 11:41:47;;;;;;;16.30;3.00;;;14.50;66.20;;;;;;5037335;28;20029;-71
2022/11/22 11:44:26;;;;;;;17.83;2.70;;;14.50;66.80;;;;;;5052939;28;20025;-72
2022/11/22 11:46:52;;;;;;;20.05;2.90;;;14.50;67.00;;;;;;5052661;28;20426;-72
2022/11/22 11:49:23;;;;;;;16.15;2.92;;;14.50;67.30;;;;;;5053027;28;20029;-71
2022/11/22 11:51:58;;;;;;;21.58;3.17;;;14.50;67.40;;;;;;5036761;28;20484;-71
2022/11/22 11:54:27;;;;;;;23.58;3.88;;;14.50;67.40;;;;;;5037365;28;20023;-69
2022/11/22 11:56:59;;;;;;;20.05;2.90;;;14.40;67.50;;;;;;5035919;28;20028;-70
2022/11/22 11:59:37;;;;;;;16.00;2.72;;;14.50;67.70;;;;;;5036251;28;20411;-70
2022/11/22 12:02:09;;;;;;;16.05;2.60;;;14.40;67.50;;;;;;5052659;28;20061;-71
2022/11/22 12:04:36;;;;;;;21.90;3.53;;;14.40;67.20;;;;;;5052740;28;20091;-70
2022/11/22 12:07:21;;;;;;;14.95;2.85;;;14.40;67.30;;;;;;5052337;28;20029;-71
2022/11/22 12:09:48;;;;;;;25.20;3.35;;;14.40;67.00;;;;;;5053118;28;20183;-70
2022/11/22 12:12:17;;;;;;;23.10;3.05;;;14.40;67.00;;;;;;5052280;28;20092;-70
2022/11/22 12:14:45;;;;;;;18.17;2.70;;;14.40;66.70;;;;;;5053380;28;20100;-70
2022/11/22 12:17:14;;;;;;;17.92;2.72;;;14.30;66.80;;;;;;5035828;28;20021;-71
2022/11/22 12:20:01;;;;;;;17.75;2.10;;;14.30;66.50;;;;;;5028877;28;20078;-71
2022/11/22 12:22:36;;;;;;;15.43;2.70;;;14.30;66.90;;;;;;5033304;28;20036;-70
2022/11/22 12:25:33;;;;;;;18.30;3.00;;;14.20;67.70;;;;;;5032001;28;20022;-69
2022/11/22 12:28:01;;;;;;;16.75;2.40;;;14.10;68.80;;;;;;5032126;28;20028;-69
2022/11/22 12:30:27;;;;;;;14.38;2.88;;;14.00;69.40;;;;;;5015453;28;20447;-70
2022/11/22 12:33:02;;;;;;;15.35;2.13;;;14.00;69.60;;;;;;5031993;28;20120;-69
2022/11/22 12:35:28;;;;;;;14.57;2.38;;;13.90;69.40;;;;;;5032970;28;20096;-69
2022/11/22 12:37:56;;;;;;;13.18;2.22;;;13.90;69.00;;;;;;5048719;28;20468;-69
2022/11/22 12:40:26;;;;;;;14.40;2.53;;;13.90;68.80;;;;;;5051362;28;20025;-69
2022/11/22 12:42:53;;;;;;;14.10;2.63;;;13.90;68.70;;;;;;5035338;28;20023;-70
2022/11/22 12:45:39;;;;;;;18.08;3.00;;;13.90;69.00;;;;;;5051735;28;20013;-69
2022/11/22 12:48:45;;;;;;;19.20;2.75;;;13.90;69.10;;;;;;5035270;28;20021;-69
2022/11/22 12:51:25;;;;;;;14.85;2.53;;;13.90;68.90;;;;;;5059285;28;20092;-69
2022/11/22 12:53:50;;;;;;;11.57;2.13;;;13.90;68.90;;;;;;5037733;28;20538;-69
2022/11/22 12:56:22;;;;;;;22.33;2.75;;;13.90;68.60;;;;;;5037284;28;20033;-69
2022/11/22 12:59:10;;;;;;;10.40;2.28;;;13.80;68.20;;;;;;5070206;28;20135;-69
2022/11/22 13:01:36;;;;;;;16.10;2.33;;;13.80;68.30;;;;;;5053445;28;20025;-69
2022/11/22 13:04:14;;;;;;;18.90;2.88;;;13.80;67.90;;;;;;5070192;28;20025;-69